sensor_id;sensor_type;location;lat;lon;timestamp;P1;durP1;ratioP1;P2;durP2;ratioP2
16822;SDS011;8528;49.976;11.858;2022-09-12T00:01:17;3.93;;;3.10;;
16822;SDS011;8528;49.976;11.858;2022-09-12T00:03:53;3.90;;;3.50;;
16822;SDS011;8528;49.976;11.858;2022-09-12T00:06:25;4.00;;;3.53;;
16822;SDS011;8528;49.976;11.858;2022-09-12T00:08:58;4.27;;;3.30;;
16822;SDS011;8528;49.976;11.858;2022-09-12T00:11:27;3.30;;;2.93;;
16822;SDS011;8528;49.976;11.858;2022-09-12T00:13:55;3.20;;;2.90;;
16822;SDS011;8528;49.976;11.858;2022-09-12T00:16:24;4.13;;;2.90;;
16822;SDS011;8528;49.976;11.858;2022-09-12T00:18:52;4.03;;;3.63;;
16822;SDS011;8528;49.976;11.858;2022-09-12T00:21:19;3.30;;;3.00;;
16822;SDS011;8528;49.976;11.858;2022-09-12T00:23:47;2.87;;;2.57;;
16822;SDS011;8528;49.976;11.858;2022-09-12T00:26:14;3.27;;;2.80;;
16822;SDS011;8528;49.976;11.858;2022-09-12T00:28:42;4.47;;;4.00;;
16822;SDS011;8528;49.976;11.858;2022-09-12T00:31:19;5.53;;;3.80;;
16822;SDS011;8528;49.976;11.858;2022-09-12T00:33:49;4.13;;;3.63;;
16822;SDS011;8528;49.976;11.858;2022-09-12T00:36:18;3.13;;;2.83;;
16822;SDS011;8528;49.976;11.858;2022-09-12T00:38:46;3.10;;;2.80;;
16822;SDS011;8528;49.976;11.858;2022-09-12T00:41:21;4.00;;;3.20;;
16822;SDS011;8528;49.976;11.858;2022-09-12T00:43:56;3.83;;;2.87;;
16822;SDS011;8528;49.976;11.858;2022-09-12T00:46:27;3.80;;;2.87;;
16822;SDS011;8528;49.976;11.858;2022-09-12T00:52:21;3.50;;;3.10;;
16822;SDS011;8528;49.976;11.858;2022-09-12T00:55:18;3.70;;;3.07;;
16822;SDS011;8528;49.976;11.858;2022-09-12T00:58:13;3.20;;;2.90;;
16822;SDS011;8528;49.976;11.858;2022-09-12T01:00:45;3.57;;;3.27;;
16822;SDS011;8528;49.976;11.858;2022-09-12T01:03:13;4.50;;;3.33;;
16822;SDS011;8528;49.976;11.858;2022-09-12T01:08:37;4.07;;;3.13;;
16822;SDS011;8528;49.976;11.858;2022-09-12T01:11:06;2.93;;;2.63;;
16822;SDS011;8528;49.976;11.858;2022-09-12T01:13:35;5.00;;;3.70;;
16822;SDS011;8528;49.976;11.858;2022-09-12T01:16:03;4.53;;;3.57;;
16822;SDS011;8528;49.976;11.858;2022-09-12T01:18:36;6.80;;;3.53;;
16822;SDS011;8528;49.976;11.858;2022-09-12T01:21:18;3.30;;;3.00;;
16822;SDS011;8528;49.976;11.858;2022-09-12T01:26:56;4.03;;;3.00;;
16822;SDS011;8528;49.976;11.858;2022-09-12T01:37:53;5.63;;;3.43;;
16822;SDS011;8528;49.976;11.858;2022-09-12T01:46:22;3.83;;;2.93;;
16822;SDS011;8528;49.976;11.858;2022-09-12T01:51:41;19.90;;;3.63;;
16822;SDS011;8528;49.976;11.858;2022-09-12T01:54:36;7.43;;;3.40;;
16822;SDS011;8528;49.976;11.858;2022-09-12T01:57:12;3.57;;;3.27;;
16822;SDS011;8528;49.976;11.858;2022-09-12T01:59:48;3.40;;;3.10;;
16822;SDS011;8528;49.976;11.858;2022-09-12T02:02:21;8.03;;;3.50;;
16822;SDS011;8528;49.976;11.858;2022-09-12T02:05:27;3.83;;;3.27;;
16822;SDS011;8528;49.976;11.858;2022-09-12T02:08:17;4.03;;;3.10;;
16822;SDS011;8528;49.976;11.858;2022-09-12T02:10:52;3.60;;;2.87;;
16822;SDS011;8528;49.976;11.858;2022-09-12T02:16:10;4.37;;;3.07;;
16822;SDS011;8528;49.976;11.858;2022-09-12T02:18:44;3.57;;;3.27;;
16822;SDS011;8528;49.976;11.858;2022-09-12T02:21:15;5.57;;;3.10;;
16822;SDS011;8528;49.976;11.858;2022-09-12T02:23:45;3.97;;;3.50;;
16822;SDS011;8528;49.976;11.858;2022-09-12T02:26:18;4.30;;;3.30;;
16822;SDS011;8528;49.976;11.858;2022-09-12T02:28:48;5.43;;;3.10;;
16822;SDS011;8528;49.976;11.858;2022-09-12T02:31:22;3.27;;;2.97;;
16822;SDS011;8528;49.976;11.858;2022-09-12T02:39:09;3.13;;;2.70;;
16822;SDS011;8528;49.976;11.858;2022-09-12T02:41:36;4.07;;;2.77;;
16822;SDS011;8528;49.976;11.858;2022-09-12T02:44:03;3.43;;;2.87;;
16822;SDS011;8528;49.976;11.858;2022-09-12T02:46:32;3.13;;;2.83;;
16822;SDS011;8528;49.976;11.858;2022-09-12T02:49:06;3.10;;;2.60;;
16822;SDS011;8528;49.976;11.858;2022-09-12T02:51:34;2.67;;;2.47;;
16822;SDS011;8528;49.976;11.858;2022-09-12T02:54:02;3.53;;;2.90;;
16822;SDS011;8528;49.976;11.858;2022-09-12T02:56:31;3.03;;;2.60;;
16822;SDS011;8528;49.976;11.858;2022-09-12T02:59:03;3.13;;;2.83;;
16822;SDS011;8528;49.976;11.858;2022-09-12T03:07:18;3.37;;;3.03;;
16822;SDS011;8528;49.976;11.858;2022-09-12T03:10:18;3.37;;;3.07;;
16822;SDS011;8528;49.976;11.858;2022-09-12T03:23:42;3.23;;;2.83;;
16822;SDS011;8528;49.976;11.858;2022-09-12T03:26:28;4.30;;;3.30;;
16822;SDS011;8528;49.976;11.858;2022-09-12T03:29:06;4.17;;;3.60;;
16822;SDS011;8528;49.976;11.858;2022-09-12T03:31:37;4.10;;;3.50;;
16822;SDS011;8528;49.976;11.858;2022-09-12T03:34:18;4.83;;;4.10;;
16822;SDS011;8528;49.976;11.858;2022-09-12T03:36:48;5.13;;;4.10;;
16822;SDS011;8528;49.976;11.858;2022-09-12T03:39:18;3.93;;;3.53;;
16822;SDS011;8528;49.976;11.858;2022-09-12T03:41:45;5.40;;;4.10;;
16822;SDS011;8528;49.976;11.858;2022-09-12T03:44:12;6.40;;;4.87;;
16822;SDS011;8528;49.976;11.858;2022-09-12T03:46:42;5.07;;;4.00;;
16822;SDS011;8528;49.976;11.858;2022-09-12T03:49:09;5.53;;;4.20;;
16822;SDS011;8528;49.976;11.858;2022-09-12T03:51:37;4.80;;;3.60;;
16822;SDS011;8528;49.976;11.858;2022-09-12T03:54:04;5.37;;;3.97;;
16822;SDS011;8528;49.976;11.858;2022-09-12T03:56:31;4.43;;;4.03;;
16822;SDS011;8528;49.976;11.858;2022-09-12T03:58:59;3.70;;;3.40;;
16822;SDS011;8528;49.976;11.858;2022-09-12T04:01:26;3.70;;;3.30;;
16822;SDS011;8528;49.976;11.858;2022-09-12T04:03:53;6.27;;;4.00;;
16822;SDS011;8528;49.976;11.858;2022-09-12T04:06:21;4.97;;;4.13;;
16822;SDS011;8528;49.976;11.858;2022-09-12T04:08:51;5.07;;;4.13;;
16822;SDS011;8528;49.976;11.858;2022-09-12T04:11:19;4.13;;;3.57;;
16822;SDS011;8528;49.976;11.858;2022-09-12T04:13:56;5.23;;;3.80;;
16822;SDS011;8528;49.976;11.858;2022-09-12T04:16:22;5.97;;;3.20;;
16822;SDS011;8528;49.976;11.858;2022-09-12T04:18:49;3.70;;;3.40;;
16822;SDS011;8528;49.976;11.858;2022-09-12T04:21:17;5.77;;;3.60;;
16822;SDS011;8528;49.976;11.858;2022-09-12T04:23:45;4.57;;;3.70;;
16822;SDS011;8528;49.976;11.858;2022-09-12T04:26:12;7.83;;;4.30;;
16822;SDS011;8528;49.976;11.858;2022-09-12T04:28:40;3.83;;;3.33;;
16822;SDS011;8528;49.976;11.858;2022-09-12T04:31:15;5.27;;;3.00;;
16822;SDS011;8528;49.976;11.858;2022-09-12T04:33:45;3.83;;;3.53;;
16822;SDS011;8528;49.976;11.858;2022-09-12T04:36:21;3.70;;;3.40;;
16822;SDS011;8528;49.976;11.858;2022-09-12T04:38:53;3.80;;;3.37;;
16822;SDS011;8528;49.976;11.858;2022-09-12T04:41:35;4.43;;;3.40;;
16822;SDS011;8528;49.976;11.858;2022-09-12T04:44:05;5.07;;;3.60;;
16822;SDS011;8528;49.976;11.858;2022-09-12T04:46:38;3.53;;;3.03;;
16822;SDS011;8528;49.976;11.858;2022-09-12T04:49:13;4.03;;;3.30;;
16822;SDS011;8528;49.976;11.858;2022-09-12T04:51:51;4.33;;;3.33;;
16822;SDS011;8528;49.976;11.858;2022-09-12T04:54:19;5.13;;;3.43;;
16822;SDS011;8528;49.976;11.858;2022-09-12T04:56:47;4.97;;;3.80;;
16822;SDS011;8528;49.976;11.858;2022-09-12T04:59:15;3.53;;;2.80;;
16822;SDS011;8528;49.976;11.858;2022-09-12T05:01:43;3.13;;;2.83;;
16822;SDS011;8528;49.976;11.858;2022-09-12T05:04:10;3.30;;;3.00;;
16822;SDS011;8528;49.976;11.858;2022-09-12T05:06:38;3.37;;;3.07;;
16822;SDS011;8528;49.976;11.858;2022-09-12T05:09:07;3.97;;;3.10;;
16822;SDS011;8528;49.976;11.858;2022-09-12T05:11:40;4.37;;;3.97;;
16822;SDS011;8528;49.976;11.858;2022-09-12T05:14:28;4.13;;;3.00;;
16822;SDS011;8528;49.976;11.858;2022-09-12T05:16:59;3.20;;;2.90;;
16822;SDS011;8528;49.976;11.858;2022-09-12T05:19:28;5.03;;;3.10;;
16822;SDS011;8528;49.976;11.858;2022-09-12T05:21:55;4.13;;;3.17;;
16822;SDS011;8528;49.976;11.858;2022-09-12T05:24:23;5.33;;;2.80;;
16822;SDS011;8528;49.976;11.858;2022-09-12T05:26:53;3.67;;;3.10;;
16822;SDS011;8528;49.976;11.858;2022-09-12T05:29:20;4.10;;;3.70;;
16822;SDS011;8528;49.976;11.858;2022-09-12T05:31:47;5.73;;;4.13;;
16822;SDS011;8528;49.976;11.858;2022-09-12T05:34:17;4.10;;;3.30;;
16822;SDS011;8528;49.976;11.858;2022-09-12T05:36:45;4.77;;;3.40;;
16822;SDS011;8528;49.976;11.858;2022-09-12T05:39:12;4.10;;;3.10;;
16822;SDS011;8528;49.976;11.858;2022-09-12T05:41:39;4.53;;;3.17;;
16822;SDS011;8528;49.976;11.858;2022-09-12T05:44:10;3.50;;;3.20;;
16822;SDS011;8528;49.976;11.858;2022-09-12T05:46:40;3.83;;;2.63;;
16822;SDS011;8528;49.976;11.858;2022-09-12T05:49:09;3.63;;;3.00;;
16822;SDS011;8528;49.976;11.858;2022-09-12T05:51:39;5.23;;;3.70;;
16822;SDS011;8528;49.976;11.858;2022-09-12T05:54:08;3.47;;;3.17;;
16822;SDS011;8528;49.976;11.858;2022-09-12T05:56:39;3.73;;;3.40;;
16822;SDS011;8528;49.976;11.858;2022-09-12T05:59:11;3.57;;;3.27;;
16822;SDS011;8528;49.976;11.858;2022-09-12T06:01:43;3.77;;;3.43;;
16822;SDS011;8528;49.976;11.858;2022-09-12T06:04:10;3.40;;;3.10;;
16822;SDS011;8528;49.976;11.858;2022-09-12T06:06:42;4.40;;;4.00;;
16822;SDS011;8528;49.976;11.858;2022-09-12T06:09:14;5.40;;;3.57;;
16822;SDS011;8528;49.976;11.858;2022-09-12T06:11:42;4.67;;;3.73;;
16822;SDS011;8528;49.976;11.858;2022-09-12T06:14:10;5.77;;;3.93;;
16822;SDS011;8528;49.976;11.858;2022-09-12T06:16:42;5.53;;;3.77;;
16822;SDS011;8528;49.976;11.858;2022-09-12T06:19:17;6.53;;;4.20;;
16822;SDS011;8528;49.976;11.858;2022-09-12T06:21:48;5.20;;;3.80;;
16822;SDS011;8528;49.976;11.858;2022-09-12T06:24:18;4.47;;;3.53;;
16822;SDS011;8528;49.976;11.858;2022-09-12T06:26:48;4.27;;;3.87;;
16822;SDS011;8528;49.976;11.858;2022-09-12T06:29:18;5.43;;;4.40;;
16822;SDS011;8528;49.976;11.858;2022-09-12T06:31:45;5.93;;;4.67;;
16822;SDS011;8528;49.976;11.858;2022-09-12T06:34:12;5.90;;;4.60;;
16822;SDS011;8528;49.976;11.858;2022-09-12T06:36:49;6.73;;;5.37;;
16822;SDS011;8528;49.976;11.858;2022-09-12T06:39:20;6.60;;;5.13;;
16822;SDS011;8528;49.976;11.858;2022-09-12T06:41:50;6.87;;;5.67;;
16822;SDS011;8528;49.976;11.858;2022-09-12T06:44:19;9.87;;;6.07;;
16822;SDS011;8528;49.976;11.858;2022-09-12T06:46:48;7.53;;;5.90;;
16822;SDS011;8528;49.976;11.858;2022-09-12T06:49:17;7.93;;;5.47;;
16822;SDS011;8528;49.976;11.858;2022-09-12T06:51:44;8.37;;;6.30;;
16822;SDS011;8528;49.976;11.858;2022-09-12T06:54:23;7.10;;;5.90;;
16822;SDS011;8528;49.976;11.858;2022-09-12T06:56:52;7.23;;;5.57;;
16822;SDS011;8528;49.976;11.858;2022-09-12T06:59:19;8.90;;;6.60;;
16822;SDS011;8528;49.976;11.858;2022-09-12T07:01:46;8.43;;;6.80;;
16822;SDS011;8528;49.976;11.858;2022-09-12T07:04:13;10.43;;;7.00;;
16822;SDS011;8528;49.976;11.858;2022-09-12T07:06:44;9.73;;;6.27;;
16822;SDS011;8528;49.976;11.858;2022-09-12T07:09:12;9.67;;;7.33;;
16822;SDS011;8528;49.976;11.858;2022-09-12T07:11:41;10.10;;;7.00;;
16822;SDS011;8528;49.976;11.858;2022-09-12T07:14:10;10.60;;;7.10;;
16822;SDS011;8528;49.976;11.858;2022-09-12T07:16:39;10.33;;;7.30;;
16822;SDS011;8528;49.976;11.858;2022-09-12T07:19:07;10.37;;;7.37;;
16822;SDS011;8528;49.976;11.858;2022-09-12T07:21:38;9.37;;;7.27;;
16822;SDS011;8528;49.976;11.858;2022-09-12T07:24:06;8.83;;;7.13;;
16822;SDS011;8528;49.976;11.858;2022-09-12T07:26:35;10.47;;;6.57;;
16822;SDS011;8528;49.976;11.858;2022-09-12T07:29:06;8.20;;;6.90;;
16822;SDS011;8528;49.976;11.858;2022-09-12T07:31:58;10.00;;;8.37;;
16822;SDS011;8528;49.976;11.858;2022-09-12T07:34:28;9.70;;;7.73;;
16822;SDS011;8528;49.976;11.858;2022-09-12T07:36:54;7.47;;;6.00;;
16822;SDS011;8528;49.976;11.858;2022-09-12T07:39:24;5.90;;;5.23;;
16822;SDS011;8528;49.976;11.858;2022-09-12T07:41:53;7.57;;;6.17;;
16822;SDS011;8528;49.976;11.858;2022-09-12T07:44:21;8.33;;;5.37;;
16822;SDS011;8528;49.976;11.858;2022-09-12T07:46:48;6.07;;;5.10;;
16822;SDS011;8528;49.976;11.858;2022-09-12T07:49:15;6.20;;;4.90;;
16822;SDS011;8528;49.976;11.858;2022-09-12T07:51:43;5.30;;;4.80;;
16822;SDS011;8528;49.976;11.858;2022-09-12T07:54:09;5.87;;;4.97;;
16822;SDS011;8528;49.976;11.858;2022-09-12T07:56:37;6.17;;;5.10;;
16822;SDS011;8528;49.976;11.858;2022-09-12T07:59:04;6.53;;;4.90;;
16822;SDS011;8528;49.976;11.858;2022-09-12T08:01:32;8.07;;;4.93;;
16822;SDS011;8528;49.976;11.858;2022-09-12T08:04:03;7.97;;;4.30;;
16822;SDS011;8528;49.976;11.858;2022-09-12T08:06:30;4.90;;;4.33;;
16822;SDS011;8528;49.976;11.858;2022-09-12T08:09:02;5.00;;;4.10;;
16822;SDS011;8528;49.976;11.858;2022-09-12T08:11:30;4.60;;;4.20;;
16822;SDS011;8528;49.976;11.858;2022-09-12T08:14:04;5.93;;;4.30;;
16822;SDS011;8528;49.976;11.858;2022-09-12T08:16:31;6.33;;;4.20;;
16822;SDS011;8528;49.976;11.858;2022-09-12T08:19:01;5.87;;;4.83;;
16822;SDS011;8528;49.976;11.858;2022-09-12T08:21:29;4.90;;;4.10;;
16822;SDS011;8528;49.976;11.858;2022-09-12T08:24:01;4.93;;;4.53;;
16822;SDS011;8528;49.976;11.858;2022-09-12T08:26:30;3.97;;;3.57;;
16822;SDS011;8528;49.976;11.858;2022-09-12T08:28:58;4.87;;;3.90;;
16822;SDS011;8528;49.976;11.858;2022-09-12T08:31:28;3.97;;;3.57;;
16822;SDS011;8528;49.976;11.858;2022-09-12T08:34:05;4.23;;;3.83;;
16822;SDS011;8528;49.976;11.858;2022-09-12T08:36:38;6.60;;;3.83;;
16822;SDS011;8528;49.976;11.858;2022-09-12T08:39:05;7.03;;;4.00;;
16822;SDS011;8528;49.976;11.858;2022-09-12T08:58:15;3.67;;;3.37;;
16822;SDS011;8528;49.976;11.858;2022-09-12T09:13:04;3.13;;;2.83;;
16822;SDS011;8528;49.976;11.858;2022-09-12T09:16:25;2.70;;;2.50;;
16822;SDS011;8528;49.976;11.858;2022-09-12T09:18:59;2.87;;;2.20;;
16822;SDS011;8528;49.976;11.858;2022-09-12T09:21:35;2.73;;;2.47;;
16822;SDS011;8528;49.976;11.858;2022-09-12T09:24:10;2.60;;;2.40;;
16822;SDS011;8528;49.976;11.858;2022-09-12T09:29:40;6.43;;;3.63;;
16822;SDS011;8528;49.976;11.858;2022-09-12T09:32:27;3.57;;;3.27;;
16822;SDS011;8528;49.976;11.858;2022-09-12T09:38:12;3.73;;;3.40;;
16822;SDS011;8528;49.976;11.858;2022-09-12T09:40:56;3.67;;;3.37;;
16822;SDS011;8528;49.976;11.858;2022-09-12T09:43:31;4.73;;;3.30;;
16822;SDS011;8528;49.976;11.858;2022-09-12T09:45:58;4.63;;;3.90;;
16822;SDS011;8528;49.976;11.858;2022-09-12T09:48:28;5.07;;;3.60;;
16822;SDS011;8528;49.976;11.858;2022-09-12T09:51:05;5.57;;;4.00;;
16822;SDS011;8528;49.976;11.858;2022-09-12T09:56:34;4.23;;;3.83;;
16822;SDS011;8528;49.976;11.858;2022-09-12T10:01:49;5.07;;;3.97;;
16822;SDS011;8528;49.976;11.858;2022-09-12T10:04:32;4.50;;;3.90;;
16822;SDS011;8528;49.976;11.858;2022-09-12T10:07:16;4.07;;;3.67;;
16822;SDS011;8528;49.976;11.858;2022-09-12T10:13:12;4.00;;;3.37;;
16822;SDS011;8528;49.976;11.858;2022-09-12T10:15:57;6.30;;;3.53;;
16822;SDS011;8528;49.976;11.858;2022-09-12T10:18:38;3.60;;;3.30;;
16822;SDS011;8528;49.976;11.858;2022-09-12T10:21:14;4.23;;;3.60;;
16822;SDS011;8528;49.976;11.858;2022-09-12T10:24:23;4.03;;;3.20;;
16822;SDS011;8528;49.976;11.858;2022-09-12T10:27:05;3.63;;;3.33;;
16822;SDS011;8528;49.976;11.858;2022-09-12T10:29:43;5.37;;;3.30;;
16822;SDS011;8528;49.976;11.858;2022-09-12T10:32:30;3.77;;;3.37;;
16822;SDS011;8528;49.976;11.858;2022-09-12T10:35:07;3.50;;;3.13;;
16822;SDS011;8528;49.976;11.858;2022-09-12T10:38:30;4.87;;;3.60;;
16822;SDS011;8528;49.976;11.858;2022-09-12T10:43:40;4.90;;;3.43;;
16822;SDS011;8528;49.976;11.858;2022-09-12T10:48:46;3.87;;;3.20;;
16822;SDS011;8528;49.976;11.858;2022-09-12T10:51:33;3.80;;;3.50;;
16822;SDS011;8528;49.976;11.858;2022-09-12T10:54:00;3.63;;;3.30;;
16822;SDS011;8528;49.976;11.858;2022-09-12T10:56:31;4.00;;;3.20;;
16822;SDS011;8528;49.976;11.858;2022-09-12T11:07:48;3.93;;;3.20;;
16822;SDS011;8528;49.976;11.858;2022-09-12T11:19:05;3.20;;;2.90;;
16822;SDS011;8528;49.976;11.858;2022-09-12T11:22:10;4.00;;;2.93;;
16822;SDS011;8528;49.976;11.858;2022-09-12T11:25:13;3.40;;;3.07;;
16822;SDS011;8528;49.976;11.858;2022-09-12T11:27:53;5.37;;;3.17;;
16822;SDS011;8528;49.976;11.858;2022-09-12T11:30:23;5.53;;;3.43;;
16822;SDS011;8528;49.976;11.858;2022-09-12T11:35:40;3.97;;;3.00;;
16822;SDS011;8528;49.976;11.858;2022-09-12T11:38:24;3.93;;;2.93;;
16822;SDS011;8528;49.976;11.858;2022-09-12T11:46:39;3.60;;;2.80;;
16822;SDS011;8528;49.976;11.858;2022-09-12T11:57:33;3.13;;;2.83;;
16822;SDS011;8528;49.976;11.858;2022-09-12T12:00:16;3.00;;;2.70;;
16822;SDS011;8528;49.976;11.858;2022-09-12T12:03:10;3.20;;;2.90;;
16822;SDS011;8528;49.976;11.858;2022-09-12T12:05:53;4.63;;;2.93;;
16822;SDS011;8528;49.976;11.858;2022-09-12T12:08:29;5.03;;;3.30;;
16822;SDS011;8528;49.976;11.858;2022-09-12T12:10:59;3.93;;;2.90;;
16822;SDS011;8528;49.976;11.858;2022-09-12T12:18:38;3.43;;;2.90;;
16822;SDS011;8528;49.976;11.858;2022-09-12T12:34:37;7.03;;;3.10;;
16822;SDS011;8528;49.976;11.858;2022-09-12T12:52:53;3.30;;;3.00;;
16822;SDS011;8528;49.976;11.858;2022-09-12T12:58:06;3.40;;;3.10;;
16822;SDS011;8528;49.976;11.858;2022-09-12T13:03:45;2.40;;;2.20;;
16822;SDS011;8528;49.976;11.858;2022-09-12T13:09:09;2.80;;;2.60;;
16822;SDS011;8528;49.976;11.858;2022-09-12T13:12:02;2.53;;;2.33;;
16822;SDS011;8528;49.976;11.858;2022-09-12T13:17:17;3.33;;;2.80;;
16822;SDS011;8528;49.976;11.858;2022-09-12T13:19:48;2.80;;;2.30;;
16822;SDS011;8528;49.976;11.858;2022-09-12T13:22:46;3.17;;;2.87;;
16822;SDS011;8528;49.976;11.858;2022-09-12T13:27:55;3.20;;;2.67;;
16822;SDS011;8528;49.976;11.858;2022-09-12T13:30:34;2.93;;;2.70;;
16822;SDS011;8528;49.976;11.858;2022-09-12T13:33:08;3.00;;;2.80;;
16822;SDS011;8528;49.976;11.858;2022-09-12T13:41:39;3.50;;;2.60;;
16822;SDS011;8528;49.976;11.858;2022-09-12T13:44:30;2.40;;;2.20;;
16822;SDS011;8528;49.976;11.858;2022-09-12T13:47:21;3.67;;;2.50;;
16822;SDS011;8528;49.976;11.858;2022-09-12T13:49:53;2.73;;;2.40;;
16822;SDS011;8528;49.976;11.858;2022-09-12T13:52:25;2.53;;;2.33;;
16822;SDS011;8528;49.976;11.858;2022-09-12T13:54:56;4.30;;;2.43;;
16822;SDS011;8528;49.976;11.858;2022-09-12T13:57:37;2.47;;;2.27;;
16822;SDS011;8528;49.976;11.858;2022-09-12T14:00:11;2.93;;;2.03;;
16822;SDS011;8528;49.976;11.858;2022-09-12T14:02:45;2.50;;;2.30;;
16822;SDS011;8528;49.976;11.858;2022-09-12T14:05:17;2.47;;;2.27;;
16822;SDS011;8528;49.976;11.858;2022-09-12T14:10:31;2.67;;;2.37;;
16822;SDS011;8528;49.976;11.858;2022-09-12T14:13:15;2.80;;;2.57;;
16822;SDS011;8528;49.976;11.858;2022-09-12T14:15:57;2.30;;;2.10;;
16822;SDS011;8528;49.976;11.858;2022-09-12T14:18:28;2.37;;;2.17;;
16822;SDS011;8528;49.976;11.858;2022-09-12T14:21:09;2.37;;;2.17;;
16822;SDS011;8528;49.976;11.858;2022-09-12T14:23:44;3.70;;;2.10;;
16822;SDS011;8528;49.976;11.858;2022-09-12T14:26:13;2.60;;;2.40;;
16822;SDS011;8528;49.976;11.858;2022-09-12T14:29:06;2.40;;;2.20;;
16822;SDS011;8528;49.976;11.858;2022-09-12T14:31:35;2.53;;;2.33;;
16822;SDS011;8528;49.976;11.858;2022-09-12T14:34:16;2.57;;;2.20;;
16822;SDS011;8528;49.976;11.858;2022-09-12T14:36:45;2.60;;;2.40;;
16822;SDS011;8528;49.976;11.858;2022-09-12T14:39:21;2.07;;;1.83;;
16822;SDS011;8528;49.976;11.858;2022-09-12T14:42:14;2.87;;;2.37;;
16822;SDS011;8528;49.976;11.858;2022-09-12T14:45:20;2.90;;;2.60;;
16822;SDS011;8528;49.976;11.858;2022-09-12T14:47:46;3.97;;;2.27;;
16822;SDS011;8528;49.976;11.858;2022-09-12T14:50:20;2.43;;;2.23;;
16822;SDS011;8528;49.976;11.858;2022-09-12T14:53:02;2.40;;;2.20;;
16822;SDS011;8528;49.976;11.858;2022-09-12T14:55:32;3.90;;;2.60;;
16822;SDS011;8528;49.976;11.858;2022-09-12T15:06:28;2.30;;;2.10;;
16822;SDS011;8528;49.976;11.858;2022-09-12T15:09:01;2.30;;;2.10;;
16822;SDS011;8528;49.976;11.858;2022-09-12T15:11:34;2.23;;;2.03;;
16822;SDS011;8528;49.976;11.858;2022-09-12T15:14:13;2.30;;;2.10;;
16822;SDS011;8528;49.976;11.858;2022-09-12T15:16:40;2.43;;;2.00;;
16822;SDS011;8528;49.976;11.858;2022-09-12T15:19:07;2.30;;;2.00;;
16822;SDS011;8528;49.976;11.858;2022-09-12T15:21:33;2.20;;;2.00;;
16822;SDS011;8528;49.976;11.858;2022-09-12T15:24:03;2.30;;;2.10;;
16822;SDS011;8528;49.976;11.858;2022-09-12T15:26:30;2.13;;;1.97;;
16822;SDS011;8528;49.976;11.858;2022-09-12T15:28:56;3.13;;;2.10;;
16822;SDS011;8528;49.976;11.858;2022-09-12T15:31:27;2.80;;;2.50;;
16822;SDS011;8528;49.976;11.858;2022-09-12T15:33:57;3.33;;;2.17;;
16822;SDS011;8528;49.976;11.858;2022-09-12T15:36:25;2.63;;;2.27;;
16822;SDS011;8528;49.976;11.858;2022-09-12T15:38:54;2.40;;;2.20;;
16822;SDS011;8528;49.976;11.858;2022-09-12T15:41:22;2.67;;;2.30;;
16822;SDS011;8528;49.976;11.858;2022-09-12T15:43:56;2.30;;;2.07;;
16822;SDS011;8528;49.976;11.858;2022-09-12T15:46:26;3.50;;;2.73;;
16822;SDS011;8528;49.976;11.858;2022-09-12T15:48:52;3.47;;;2.70;;
16822;SDS011;8528;49.976;11.858;2022-09-12T15:51:20;3.23;;;2.63;;
16822;SDS011;8528;49.976;11.858;2022-09-12T15:53:47;4.10;;;3.23;;
16822;SDS011;8528;49.976;11.858;2022-09-12T15:56:16;2.77;;;2.57;;
16822;SDS011;8528;49.976;11.858;2022-09-12T15:58:43;3.23;;;2.93;;
16822;SDS011;8528;49.976;11.858;2022-09-12T16:01:23;3.47;;;2.70;;
16822;SDS011;8528;49.976;11.858;2022-09-12T16:03:50;6.63;;;4.83;;
16822;SDS011;8528;49.976;11.858;2022-09-12T16:06:17;6.47;;;5.70;;
16822;SDS011;8528;49.976;11.858;2022-09-12T16:08:43;7.67;;;6.13;;
16822;SDS011;8528;49.976;11.858;2022-09-12T16:11:12;10.70;;;8.53;;
16822;SDS011;8528;49.976;11.858;2022-09-12T16:13:47;6.47;;;3.37;;
16822;SDS011;8528;49.976;11.858;2022-09-12T16:16:14;4.17;;;3.73;;
16822;SDS011;8528;49.976;11.858;2022-09-12T16:18:41;3.30;;;3.00;;
16822;SDS011;8528;49.976;11.858;2022-09-12T16:21:08;3.20;;;2.90;;
16822;SDS011;8528;49.976;11.858;2022-09-12T16:23:46;4.83;;;2.93;;
16822;SDS011;8528;49.976;11.858;2022-09-12T16:26:14;2.40;;;2.20;;
16822;SDS011;8528;49.976;11.858;2022-09-12T16:28:41;3.07;;;2.60;;
16822;SDS011;8528;49.976;11.858;2022-09-12T16:31:12;2.90;;;2.40;;
16822;SDS011;8528;49.976;11.858;2022-09-12T16:33:39;2.60;;;2.37;;
16822;SDS011;8528;49.976;11.858;2022-09-12T16:36:16;3.10;;;2.77;;
16822;SDS011;8528;49.976;11.858;2022-09-12T16:38:51;5.03;;;4.50;;
16822;SDS011;8528;49.976;11.858;2022-09-12T16:41:20;4.07;;;3.67;;
16822;SDS011;8528;49.976;11.858;2022-09-12T16:43:49;5.22;;;3.72;;
16822;SDS011;8528;49.976;11.858;2022-09-12T16:46:23;3.53;;;2.90;;
16822;SDS011;8528;49.976;11.858;2022-09-12T16:48:52;2.75;;;2.55;;
16822;SDS011;8528;49.976;11.858;2022-09-12T16:51:22;2.78;;;2.58;;
16822;SDS011;8528;49.976;11.858;2022-09-12T16:54:13;2.60;;;2.40;;
16822;SDS011;8528;49.976;11.858;2022-09-12T16:56:40;2.70;;;2.50;;
16822;SDS011;8528;49.976;11.858;2022-09-12T16:59:11;2.50;;;2.30;;
16822;SDS011;8528;49.976;11.858;2022-09-12T17:01:41;2.77;;;2.33;;
16822;SDS011;8528;49.976;11.858;2022-09-12T17:04:08;3.73;;;2.67;;
16822;SDS011;8528;49.976;11.858;2022-09-12T17:06:35;4.80;;;3.40;;
16822;SDS011;8528;49.976;11.858;2022-09-12T17:09:03;3.30;;;3.00;;
16822;SDS011;8528;49.976;11.858;2022-09-12T17:11:36;4.77;;;2.57;;
16822;SDS011;8528;49.976;11.858;2022-09-12T17:14:05;3.43;;;3.00;;
16822;SDS011;8528;49.976;11.858;2022-09-12T17:16:40;4.73;;;3.50;;
16822;SDS011;8528;49.976;11.858;2022-09-12T17:19:20;11.30;;;4.77;;
16822;SDS011;8528;49.976;11.858;2022-09-12T17:21:53;5.73;;;4.63;;
16822;SDS011;8528;49.976;11.858;2022-09-12T17:24:20;4.70;;;4.10;;
16822;SDS011;8528;49.976;11.858;2022-09-12T17:26:48;3.93;;;3.53;;
16822;SDS011;8528;49.976;11.858;2022-09-12T17:29:15;4.57;;;3.47;;
16822;SDS011;8528;49.976;11.858;2022-09-12T17:31:45;3.80;;;3.50;;
16822;SDS011;8528;49.976;11.858;2022-09-12T17:34:11;3.43;;;3.13;;
16822;SDS011;8528;49.976;11.858;2022-09-12T17:36:43;5.63;;;3.90;;
16822;SDS011;8528;49.976;11.858;2022-09-12T17:39:13;6.97;;;3.60;;
16822;SDS011;8528;49.976;11.858;2022-09-12T17:41:46;5.13;;;3.43;;
16822;SDS011;8528;49.976;11.858;2022-09-12T17:44:16;4.23;;;3.70;;
16822;SDS011;8528;49.976;11.858;2022-09-12T17:46:45;4.43;;;3.83;;
16822;SDS011;8528;49.976;11.858;2022-09-12T17:49:16;4.70;;;3.70;;
16822;SDS011;8528;49.976;11.858;2022-09-12T17:51:47;4.70;;;4.30;;
16822;SDS011;8528;49.976;11.858;2022-09-12T17:54:15;4.80;;;4.07;;
16822;SDS011;8528;49.976;11.858;2022-09-12T17:56:45;8.13;;;4.20;;
16822;SDS011;8528;49.976;11.858;2022-09-12T17:59:16;6.83;;;4.40;;
16822;SDS011;8528;49.976;11.858;2022-09-12T18:01:44;5.37;;;4.30;;
16822;SDS011;8528;49.976;11.858;2022-09-12T18:04:30;6.30;;;4.27;;
16822;SDS011;8528;49.976;11.858;2022-09-12T18:07:01;9.87;;;6.43;;
16822;SDS011;8528;49.976;11.858;2022-09-12T18:09:27;11.50;;;7.37;;
16822;SDS011;8528;49.976;11.858;2022-09-12T18:11:55;15.10;;;5.67;;
16822;SDS011;8528;49.976;11.858;2022-09-12T18:14:23;5.87;;;4.77;;
16822;SDS011;8528;49.976;11.858;2022-09-12T18:16:52;6.70;;;4.70;;
16822;SDS011;8528;49.976;11.858;2022-09-12T18:19:26;7.20;;;5.67;;
16822;SDS011;8528;49.976;11.858;2022-09-12T18:21:53;6.93;;;5.13;;
16822;SDS011;8528;49.976;11.858;2022-09-12T18:24:21;4.77;;;4.23;;
16822;SDS011;8528;49.976;11.858;2022-09-12T18:26:48;4.50;;;3.93;;
16822;SDS011;8528;49.976;11.858;2022-09-12T18:29:15;4.87;;;4.03;;
16822;SDS011;8528;49.976;11.858;2022-09-12T18:31:42;5.17;;;3.47;;
16822;SDS011;8528;49.976;11.858;2022-09-12T18:34:12;5.43;;;4.23;;
16822;SDS011;8528;49.976;11.858;2022-09-12T18:36:40;6.00;;;4.73;;
16822;SDS011;8528;49.976;11.858;2022-09-12T18:39:08;7.20;;;4.70;;
16822;SDS011;8528;49.976;11.858;2022-09-12T18:41:35;4.63;;;4.13;;